Time;durP1;ratioP1;P1;durP2;ratioP2;P2;SDS_P1;SDS_P2;PMS_P1;PMS_P2;Temp;Humidity;BMP_temperature;BMP_pressure;BME280_temperature;BME280_humidity;BME280_pressure;Samples;Min_cycle;Max_cycle;Signal;HPM_P1;HPM_P2
2024/01/01 00:01:08;;;;;;;192.73;119.32;;;;;;;;;;5070573;28;20056;-80
2024/01/01 00:03:34;;;;;;;181.45;114.50;;;;;;;;;;5058267;28;20028;-80
2024/01/01 00:05:59;;;;;;;169.70;103.60;;;;;;;;;;5059478;28;20032;-81
2024/01/01 00:08:24;;;;;;;166.15;100.97;;;;;;;;;;5046451;28;20032;-80
2024/01/01 00:10:50;;;;;;;166.60;104.07;;;;;;;;;;5056229;28;20104;-79
2024/01/01 00:13:18;;;;;;;150.20;93.82;;;;;;;;;;5055082;28;20404;-79
2024/01/01 00:15:44;;;;;;;132.75;81.97;;;;;;;;;;5054923;28;20423;-79
2024/01/01 00:18:09;;;;;;;126.18;76.45;;;;;;;;;;5057867;28;20032;-79
2024/01/01 00:20:34;;;;;;;128.88;77.45;;;;;;;;;;5055298;28;20029;-79
2024/01/01 00:23:00;;;;;;;129.57;78.40;;;;;;;;;;5039541;28;20164;-80
2024/01/01 00:25:25;;;;;;;129.38;78.00;;;;;;;;;;5060217;28;20160;-82
2024/01/01 00:27:50;;;;;;;117.45;74.68;;;;;;;;;;5056825;28;20040;-79
2024/01/01 00:30:16;;;;;;;123.93;76.18;;;;;;;;;;5055249;28;20025;-79
2024/01/01 00:32:41;;;;;;;137.48;82.97;;;;;;;;;;5056063;28;20033;-79
2024/01/01 00:35:10;;;;;;;130.50;79.88;;;;;;;;;;5059903;28;20511;-80
2024/01/01 00:37:36;;;;;;;115.13;68.57;;;;;;;;;;5070327;28;20454;-80
2024/01/01 00:40:02;;;;;;;113.57;67.80;;;;;;;;;;5046940;28;20519;-79
2024/01/01 00:42:27;;;;;;;108.72;66.80;;;;;;;;;;5056270;28;21165;-82
2024/01/01 00:44:53;;;;;;;98.90;58.50;;;;;;;;;;5053245;28;20029;-78
2024/01/01 00:47:18;;;;;;;90.93;56.90;;;;;;;;;;5060772;28;20043;-79
2024/01/01 00:49:44;;;;;;;95.38;56.42;;;;;;;;;;5053644;28;20036;-79
2024/01/01 00:52:09;;;;;;;89.40;55.85;;;;;;;;;;5057066;28;20139;-80
2024/01/01 00:54:37;;;;;;;76.88;45.97;;;;;;;;;;5059322;28;20041;-79
2024/01/01 00:57:03;;;;;;;71.05;44.33;;;;;;;;;;5037910;28;20032;-80
2024/01/01 00:59:28;;;;;;;68.68;41.72;;;;;;;;;;5056294;28;20510;-79
2024/01/01 01:01:54;;;;;;;68.75;42.00;;;;;;;;;;5056080;28;20090;-80
2024/01/01 01:04:19;;;;;;;63.30;39.25;;;;;;;;;;5039050;28;20037;-79
2024/01/01 01:06:45;;;;;;;54.80;35.30;;;;;;;;;;5050992;28;20061;-79
2024/01/01 01:09:11;;;;;;;53.90;34.28;;;;;;;;;;5052744;28;20029;-81
2024/01/01 01:11:40;;;;;;;51.33;31.00;;;;;;;;;;5057083;28;20043;-80
2024/01/01 01:14:06;;;;;;;49.88;31.55;;;;;;;;;;5061360;28;20040;-80
2024/01/01 01:16:32;;;;;;;55.70;32.92;;;;;;;;;;5054358;28;20084;-82
2024/01/01 01:18:59;;;;;;;50.08;32.75;;;;;;;;;;5055476;28;20045;-79
2024/01/01 01:21:25;;;;;;;54.13;32.38;;;;;;;;;;5053053;28;20112;-79
2024/01/01 01:23:50;;;;;;;49.53;31.27;;;;;;;;;;5056464;28;20445;-79
2024/01/01 01:26:16;;;;;;;43.63;26.40;;;;;;;;;;5052112;28;20052;-80
2024/01/01 01:28:41;;;;;;;38.40;24.48;;;;;;;;;;5038501;28;20584;-78
2024/01/01 01:31:06;;;;;;;36.35;21.50;;;;;;;;;;5053285;28;20055;-80
2024/01/01 01:33:32;;;;;;;37.20;21.80;;;;;;;;;;5058604;28;20119;-79
2024/01/01 01:35:57;;;;;;;41.25;25.52;;;;;;;;;;5055632;28;20130;-79
2024/01/01 01:38:28;;;;;;;36.80;22.67;;;;;;;;;;5046379;28;20048;-79
2024/01/01 01:40:54;;;;;;;34.53;20.05;;;;;;;;;;5051744;28;20136;-79
2024/01/01 01:43:23;;;;;;;30.67;19.55;;;;;;;;;;5053313;28;20119;-80
2024/01/01 01:45:49;;;;;;;30.17;18.35;;;;;;;;;;5070062;28;20140;-80
2024/01/01 01:48:15;;;;;;;29.65;18.67;;;;;;;;;;5045512;28;20029;-78
2024/01/01 01:50:40;;;;;;;35.53;20.90;;;;;;;;;;5055528;28;20123;-80
2024/01/01 01:53:06;;;;;;;28.73;17.92;;;;;;;;;;5053563;28;20162;-78
2024/01/01 01:55:31;;;;;;;27.90;17.38;;;;;;;;;;5058590;28;20498;-78
2024/01/01 01:58:04;;;;;;;30.10;17.85;;;;;;;;;;5042849;28;20040;-79
2024/01/01 02:00:30;;;;;;;27.67;17.60;;;;;;;;;;5040895;28;20484;-80
2024/01/01 02:02:59;;;;;;;32.95;18.20;;;;;;;;;;5044494;28;20043;-78
2024/01/01 02:05:24;;;;;;;28.35;16.77;;;;;;;;;;5038337;28;20106;-79
2024/01/01 02:07:49;;;;;;;31.63;19.40;;;;;;;;;;5068081;28;20095;-79
2024/01/01 02:10:15;;;;;;;32.92;20.38;;;;;;;;;;5053664;28;20062;-79
2024/01/01 02:12:45;;;;;;;34.05;20.45;;;;;;;;;;5059580;28;20055;-79
2024/01/01 02:15:11;;;;;;;38.75;21.88;;;;;;;;;;5052968;28;20039;-80
2024/01/01 02:17:36;;;;;;;36.15;20.98;;;;;;;;;;5052302;28;20033;-78
2024/01/01 02:20:05;;;;;;;39.03;20.33;;;;;;;;;;5045969;28;20056;-79
2024/01/01 02:22:37;;;;;;;37.65;21.02;;;;;;;;;;5045670;28;20045;-81
2024/01/01 02:25:04;;;;;;;34.67;19.73;;;;;;;;;;5055059;28;20174;-80
2024/01/01 02:27:29;;;;;;;32.35;19.98;;;;;;;;;;5052760;28;20036;-79
2024/01/01 02:29:55;;;;;;;36.53;21.67;;;;;;;;;;5052218;28;20036;-79
2024/01/01 02:32:20;;;;;;;32.63;19.83;;;;;;;;;;5056664;28;20131;-80
2024/01/01 02:34:48;;;;;;;30.48;18.40;;;;;;;;;;5062666;28;20431;-79
2024/01/01 02:37:16;;;;;;;35.55;20.38;;;;;;;;;;5070095;28;20033;-79
2024/01/01 02:39:41;;;;;;;31.70;18.77;;;;;;;;;;5055869;28;20037;-79
2024/01/01 02:42:07;;;;;;;33.33;19.33;;;;;;;;;;5055290;28;20040;-79
2024/01/01 02:44:32;;;;;;;26.85;16.05;;;;;;;;;;5037933;28;20162;-80
2024/01/01 02:46:57;;;;;;;28.13;16.48;;;;;;;;;;5051732;28;20041;-80
2024/01/01 02:49:23;;;;;;;26.98;15.32;;;;;;;;;;5052981;28;20033;-79
2024/01/01 02:51:48;;;;;;;27.13;15.32;;;;;;;;;;5036587;28;20036;-79
2024/01/01 02:54:14;;;;;;;26.90;15.43;;;;;;;;;;5050434;28;20500;-79
2024/01/01 02:56:47;;;;;;;27.42;15.93;;;;;;;;;;5041737;28;20226;-78
2024/01/01 02:59:13;;;;;;;24.75;14.60;;;;;;;;;;5066406;28;20090;-79
2024/01/01 03:01:38;;;;;;;27.77;14.50;;;;;;;;;;5054749;28;20025;-78
2024/01/01 03:04:04;;;;;;;24.75;12.98;;;;;;;;;;5053972;28;20037;-79
2024/01/01 03:06:34;;;;;;;27.98;14.48;;;;;;;;;;5054510;28;20037;-78
2024/01/01 03:08:59;;;;;;;24.73;13.80;;;;;;;;;;5054155;28;20037;-79
2024/01/01 03:11:27;;;;;;;23.13;12.48;;;;;;;;;;5068937;28;20105;-80
2024/01/01 03:13:53;;;;;;;22.52;13.02;;;;;;;;;;5038601;28;20051;-79
2024/01/01 03:16:18;;;;;;;32.75;18.55;;;;;;;;;;5040293;28;20424;-79
2024/01/01 03:18:44;;;;;;;28.40;14.82;;;;;;;;;;5051264;28;20036;-78
2024/01/01 03:21:09;;;;;;;22.25;12.43;;;;;;;;;;5050731;28;20040;-81
2024/01/01 03:23:34;;;;;;;22.88;11.70;;;;;;;;;;5054822;28;20047;-79
2024/01/01 03:26:00;;;;;;;23.55;12.25;;;;;;;;;;5056210;28;20037;-79
2024/01/01 03:28:26;;;;;;;21.33;10.77;;;;;;;;;;5053485;28;20038;-77
2024/01/01 03:30:51;;;;;;;21.17;12.25;;;;;;;;;;5056531;28;20051;-79
2024/01/01 03:33:17;;;;;;;21.25;11.50;;;;;;;;;;5056690;28;20396;-79
2024/01/01 03:35:42;;;;;;;18.50;10.80;;;;;;;;;;5054299;28;20380;-79
2024/01/01 03:38:08;;;;;;;19.38;10.82;;;;;;;;;;5051715;28;20048;-81
2024/01/01 03:40:35;;;;;;;21.25;11.25;;;;;;;;;;5065769;28;20433;-80
2024/01/01 03:43:03;;;;;;;;;;;;;;;;;;5055456;28;20042;-79
2024/01/01 03:45:28;;;;;;;21.10;11.35;;;;;;;;;;5057221;28;20016;-78
2024/01/01 03:47:54;;;;;;;21.73;11.35;;;;;;;;;;5063431;28;20123;-78
2024/01/01 03:50:19;;;;;;;22.73;11.45;;;;;;;;;;5057257;28;20044;-78
2024/01/01 03:52:45;;;;;;;18.85;10.80;;;;;;;;;;5051951;28;20043;-79
2024/01/01 03:55:10;;;;;;;21.88;11.73;;;;;;;;;;5054977;28;20487;-79
2024/01/01 03:57:36;;;;;;;21.92;11.15;;;;;;;;;;5071498;28;20039;-77
2024/01/01 04:00:03;;;;;;;19.70;11.27;;;;;;;;;;5058228;28;20043;-80
2024/01/01 04:02:31;;;;;;;22.05;11.23;;;;;;;;;;5046652;28;20108;-80
2024/01/01 04:04:56;;;;;;;22.42;11.43;;;;;;;;;;5035991;28;20033;-79
2024/01/01 04:07:22;;;;;;;21.00;10.73;;;;;;;;;;5062113;28;20411;-79
2024/01/01 04:09:47;;;;;;;21.20;11.50;;;;;;;;;;5073322;28;20044;-79
2024/01/01 04:12:12;;;;;;;23.50;11.63;;;;;;;;;;5058558;28;20041;-79
2024/01/01 04:14:38;;;;;;;22.35;12.52;;;;;;;;;;5058815;28;20055;-81
2024/01/01 04:17:04;;;;;;;22.30;11.98;;;;;;;;;;5040785;28;20480;-78
2024/01/01 04:19:29;;;;;;;23.70;12.27;;;;;;;;;;5041979;28;20043;-79
2024/01/01 04:21:55;;;;;;;21.58;12.02;;;;;;;;;;5055634;28;20439;-79
2024/01/01 04:24:29;;;;;;;23.65;12.75;;;;;;;;;;5026962;28;20477;-80
2024/01/01 04:26:55;;;;;;;23.25;12.52;;;;;;;;;;5040479;28;20116;-80
2024/01/01 04:29:20;;;;;;;23.65;12.65;;;;;;;;;;5045400;28;20152;-78
2024/01/01 04:31:46;;;;;;;23.15;13.07;;;;;;;;;;5056693;28;20037;-82
2024/01/01 04:34:11;;;;;;;23.23;12.93;;;;;;;;;;5054886;28;20043;-79
2024/01/01 04:36:43;;;;;;;21.52;12.32;;;;;;;;;;5056029;28;20033;-79
2024/01/01 04:39:08;;;;;;;24.55;12.85;;;;;;;;;;5055504;28;20029;-81
2024/01/01 04:41:34;;;;;;;24.10;13.55;;;;;;;;;;5047490;28;20089;-79
2024/01/01 04:43:59;;;;;;;25.42;13.70;;;;;;;;;;5050207;28;20028;-80
2024/01/01 04:46:25;;;;;;;23.75;13.63;;;;;;;;;;5051447;28;20574;-78
2024/01/01 04:48:50;;;;;;;28.30;13.80;;;;;;;;;;5057448;28;20547;-78
2024/01/01 04:51:15;;;;;;;25.65;12.63;;;;;;;;;;5051855;28;20036;-77
2024/01/01 04:53:41;;;;;;;22.55;13.10;;;;;;;;;;5061253;28;20060;-77
2024/01/01 04:56:06;;;;;;;24.55;13.65;;;;;;;;;;5044110;28;20510;-82
2024/01/01 04:58:33;;;;;;;25.95;13.50;;;;;;;;;;5053518;28;20514;-78
2024/01/01 05:00:59;;;;;;;24.50;12.48;;;;;;;;;;5071411;28;20040;-78
2024/01/01 05:03:30;;;;;;;23.13;12.38;;;;;;;;;;5047285;28;20037;-78
2024/01/01 05:05:55;;;;;;;22.02;13.32;;;;;;;;;;5024561;28;20456;-79
2024/01/01 05:08:21;;;;;;;23.05;12.55;;;;;;;;;;5054475;28;20120;-78
2024/01/01 05:10:46;;;;;;;22.90;12.45;;;;;;;;;;5054751;28;20052;-80
2024/01/01 05:13:11;;;;;;;24.80;13.15;;;;;;;;;;5053597;28;20029;-79
2024/01/01 05:15:38;;;;;;;24.13;11.98;;;;;;;;;;5059392;28;20693;-80
2024/01/01 05:18:04;;;;;;;22.33;12.90;;;;;;;;;;5056296;28;20037;-78
2024/01/01 05:20:29;;;;;;;23.27;12.32;;;;;;;;;;5054193;28;20490;-79
2024/01/01 05:22:55;;;;;;;23.63;11.32;;;;;;;;;;5047075;28;20037;-79
2024/01/01 05:25:20;;;;;;;20.27;11.65;;;;;;;;;;5046011;28;20099;-79
2024/01/01 05:27:45;;;;;;;21.90;11.85;;;;;;;;;;5065234;28;20043;-80
2024/01/01 05:30:11;;;;;;;20.33;11.88;;;;;;;;;;5042520;28;20068;-79
2024/01/01 05:32:36;;;;;;;23.33;12.68;;;;;;;;;;5046062;28;20294;-79
2024/01/01 05:35:02;;;;;;;25.90;12.90;;;;;;;;;;5054123;28;20075;-79
2024/01/01 05:37:27;;;;;;;24.83;12.23;;;;;;;;;;5055107;28;20036;-78
2024/01/01 05:39:53;;;;;;;21.80;12.10;;;;;;;;;;5061823;28;20028;-79
2024/01/01 05:42:18;;;;;;;24.80;11.85;;;;;;;;;;5052781;28;20070;-79
2024/01/01 05:44:44;;;;;;;21.90;12.80;;;;;;;;;;5055896;28;20056;-78
2024/01/01 05:47:09;;;;;;;22.35;12.65;;;;;;;;;;5056114;28;20029;-79
2024/01/01 05:49:34;;;;;;;24.15;13.55;;;;;;;;;;5046263;28;20116;-78
2024/01/01 05:52:00;;;;;;;23.95;12.68;;;;;;;;;;5053847;28;20039;-80
2024/01/01 05:54:28;;;;;;;22.38;13.02;;;;;;;;;;5045940;28;20404;-81
2024/01/01 05:56:59;;;;;;;23.90;13.25;;;;;;;;;;5037884;28;20447;-79
2024/01/01 05:59:25;;;;;;;27.17;14.10;;;;;;;;;;5044978;28;20037;-78
2024/01/01 06:01:50;;;;;;;31.20;16.60;;;;;;;;;;5053150;28;20443;-79
2024/01/01 06:04:16;;;;;;;34.28;18.60;;;;;;;;;;5056453;28;20044;-79
2024/01/01 06:06:41;;;;;;;39.70;20.55;;;;;;;;;;5050812;28;20040;-79
2024/01/01 06:09:07;;;;;;;40.92;21.25;;;;;;;;;;5055005;28;20045;-78
2024/01/01 06:11:33;;;;;;;37.85;20.67;;;;;;;;;;5049371;28;20512;-79
2024/01/01 06:13:59;;;;;;;33.33;18.55;;;;;;;;;;5073065;28;20075;-79
2024/01/01 06:16:25;;;;;;;33.03;17.30;;;;;;;;;;5054087;28;20086;-78
2024/01/01 06:18:51;;;;;;;30.10;16.63;;;;;;;;;;5051957;28;20041;-79
2024/01/01 06:21:37;;;;;;;27.45;15.07;;;;;;;;;;5042227;28;20400;-79
2024/01/01 06:24:02;;;;;;;24.67;13.18;;;;;;;;;;5050634;28;20408;-81
2024/01/01 06:26:31;;;;;;;23.83;12.48;;;;;;;;;;5056875;28;20086;-79
2024/01/01 06:28:57;;;;;;;24.40;13.30;;;;;;;;;;5044746;28;20470;-78
2024/01/01 06:31:22;;;;;;;24.17;12.63;;;;;;;;;;5053016;28;20044;-78
2024/01/01 06:34:08;;;;;;;22.55;11.43;;;;;;;;;;5053017;28;20052;-79
2024/01/01 06:36:33;;;;;;;21.50;10.35;;;;;;;;;;5025325;28;20562;-79
2024/01/01 06:38:58;;;;;;;18.35;9.20;;;;;;;;;;5025534;28;20033;-79
2024/01/01 06:41:24;;;;;;;20.05;10.07;;;;;;;;;;5025350;28;20047;-79
2024/01/01 06:43:49;;;;;;;18.73;9.40;;;;;;;;;;5017741;28;20131;-80
2024/01/01 06:46:15;;;;;;;17.73;8.95;;;;;;;;;;5026474;28;20080;-79
2024/01/01 06:48:43;;;;;;;18.45;9.20;;;;;;;;;;5009900;28;20029;-79
2024/01/01 06:51:10;;;;;;;19.27;8.63;;;;;;;;;;5027951;28;20547;-78
2024/01/01 06:53:35;;;;;;;14.65;8.05;;;;;;;;;;5027331;28;20397;-78
2024/01/01 06:56:01;;;;;;;16.40;7.70;;;;;;;;;;5042515;28;20037;-80
2024/01/01 06:58:26;;;;;;;17.45;6.95;;;;;;;;;;5043108;28;20198;-78
2024/01/01 07:00:51;;;;;;;15.73;7.40;;;;;;;;;;5026340;28;20037;-80
2024/01/01 07:03:17;;;;;;;15.68;7.57;;;;;;;;;;4996155;28;20094;-81
2024/01/01 07:05:42;;;;;;;13.38;6.63;;;;;;;;;;5010142;28;20044;-78
2024/01/01 07:08:12;;;;;;;13.38;6.75;;;;;;;;;;5047173;28;20037;-78
2024/01/01 07:10:40;;;;;;;12.35;6.78;;;;;;;;;;5021419;28;20113;-79
2024/01/01 07:13:08;;;;;;;15.00;6.38;;;;;;;;;;5036757;28;20382;-81
2024/01/01 07:15:34;;;;;;;15.57;6.22;;;;;;;;;;5052009;28;20591;-79
2024/01/01 07:17:59;;;;;;;12.60;6.60;;;;;;;;;;5055667;28;20053;-77
2024/01/01 07:20:25;;;;;;;14.25;6.10;;;;;;;;;;5058752;28;20032;-78
2024/01/01 07:22:50;;;;;;;13.02;6.35;;;;;;;;;;5045900;28;20729;-78
2024/01/01 07:25:16;;;;;;;12.77;5.95;;;;;;;;;;5046233;28;20073;-79
2024/01/01 07:27:42;;;;;;;11.40;5.85;;;;;;;;;;5072029;28;20060;-79
2024/01/01 07:30:08;;;;;;;12.77;5.90;;;;;;;;;;5047887;28;20036;-78
2024/01/01 07:32:34;;;;;;;9.55;5.32;;;;;;;;;;5054773;28;20504;-79
2024/01/01 07:35:04;;;;;;;12.43;5.60;;;;;;;;;;5056184;28;20063;-78
2024/01/01 07:37:29;;;;;;;11.95;5.40;;;;;;;;;;5055656;28;20411;-80
2024/01/01 07:39:55;;;;;;;11.55;5.18;;;;;;;;;;5054712;28;20033;-77
2024/01/01 07:42:20;;;;;;;10.45;4.70;;;;;;;;;;5054033;28;20570;-80
2024/01/01 07:44:45;;;;;;;10.43;5.90;;;;;;;;;;5058167;28;20537;-79
2024/01/01 07:47:15;;;;;;;9.77;4.60;;;;;;;;;;5052828;28;20033;-79
2024/01/01 07:49:44;;;;;;;9.70;4.85;;;;;;;;;;5037275;28;20029;-80
2024/01/01 07:52:10;;;;;;;9.82;4.53;;;;;;;;;;5064431;28;20116;-80
2024/01/01 07:54:39;;;;;;;10.45;5.18;;;;;;;;;;5042315;28;20420;-80
2024/01/01 07:57:06;;;;;;;10.68;4.43;;;;;;;;;;5041665;28;20496;-79
2024/01/01 07:59:32;;;;;;;9.37;4.57;;;;;;;;;;5065413;28;20051;-79
2024/01/01 08:01:57;;;;;;;9.30;4.38;;;;;;;;;;5051658;28;20314;-79
2024/01/01 08:04:22;;;;;;;10.45;4.45;;;;;;;;;;5034672;28;20052;-79
2024/01/01 08:06:59;;;;;;;10.10;4.30;;;;;;;;;;5056627;28;20784;-79
2024/01/01 08:09:25;;;;;;;10.75;4.88;;;;;;;;;;5044513;28;20036;-79
2024/01/01 08:11:50;;;;;;;9.20;4.35;;;;;;;;;;5046741;28;20075;-80
2024/01/01 08:14:18;;;;;;;8.23;3.78;;;;;;;;;;5039429;28;20041;-78
2024/01/01 08:17:04;;;;;;;11.05;4.38;;;;;;;;;;5054621;28;20621;-78
2024/01/01 08:19:29;;;;;;;8.35;3.80;;;;;;;;;;5020840;28;20037;-80
2024/01/01 08:21:55;;;;;;;7.72;3.88;;;;;;;;;;5018579;28;20060;-79
2024/01/01 08:24:20;;;;;;;11.73;4.25;;;;;;;;;;5035613;28;20080;-78
2024/01/01 08:26:45;;;;;;;9.20;3.75;;;;;;;;;;5025503;28;20045;-78
2024/01/01 08:29:12;;;;;;;9.13;3.80;;;;;;;;;;5006398;28;20115;-78
2024/01/01 08:31:42;;;;;;;10.60;4.05;;;;;;;;;;5022973;28;20036;-79
2024/01/01 08:34:07;;;;;;;8.93;4.30;;;;;;;;;;5003370;28;20033;-79
2024/01/01 08:36:32;;;;;;;9.18;3.92;;;;;;;;;;5023685;28;20119;-79
2024/01/01 08:38:58;;;;;;;8.65;3.42;;;;;;;;;;5034957;28;20931;-80
2024/01/01 08:41:23;;;;;;;7.93;4.00;;;;;;;;;;5013884;28;20044;-77
2024/01/01 08:43:56;;;;;;;11.02;4.13;;;;;;;;;;5022828;28;20033;-79
2024/01/01 08:46:24;;;;;;;8.98;3.58;;;;;;;;;;5022059;28;20052;-80
2024/01/01 08:48:50;;;;;;;7.43;3.67;;;;;;;;;;5021605;28;20033;-78
2024/01/01 08:51:16;;;;;;;8.05;3.60;;;;;;;;;;5019815;28;20032;-79
2024/01/01 08:53:41;;;;;;;8.82;3.65;;;;;;;;;;5023771;28;20056;-80
2024/01/01 08:56:06;;;;;;;8.95;3.60;;;;;;;;;;5031570;28;20041;-77
2024/01/01 08:58:32;;;;;;;8.90;3.85;;;;;;;;;;5043753;28;20040;-79
2024/01/01 09:00:57;;;;;;;9.32;3.60;;;;;;;;;;5054975;28;20423;-78
2024/01/01 09:03:23;;;;;;;8.68;3.10;;;;;;;;;;5048913;28;20483;-78
2024/01/01 09:05:48;;;;;;;7.80;3.38;;;;;;;;;;5062742;28;20040;-78
2024/01/01 09:08:17;;;;;;;10.05;3.40;;;;;;;;;;5054234;28;20495;-80
2024/01/01 09:10:45;;;;;;;9.95;4.05;;;;;;;;;;5058879;28;20090;-81
2024/01/01 09:13:11;;;;;;;6.13;3.03;;;;;;;;;;5045707;28;20364;-79
2024/01/01 09:15:38;;;;;;;8.27;3.45;;;;;;;;;;5054420;28;20048;-76
2024/01/01 09:18:03;;;;;;;6.75;3.25;;;;;;;;;;5046667;28;20168;-79
2024/01/01 09:20:29;;;;;;;8.48;3.20;;;;;;;;;;5065565;28;20044;-78
2024/01/01 09:22:57;;;;;;;7.05;3.03;;;;;;;;;;5070565;28;20496;-77
2024/01/01 09:25:22;;;;;;;8.45;3.10;;;;;;;;;;5055545;28;20503;-79
2024/01/01 09:27:48;;;;;;;7.20;3.20;;;;;;;;;;5055113;28;20040;-78
2024/01/01 09:30:20;;;;;;;7.38;3.10;;;;;;;;;;5053930;28;20024;-77
2024/01/01 09:32:45;;;;;;;6.57;2.72;;;;;;;;;;5041005;28;20033;-77
2024/01/01 09:35:11;;;;;;;7.13;3.00;;;;;;;;;;5040483;28;20048;-78
2024/01/01 09:37:37;;;;;;;8.18;3.15;;;;;;;;;;5048137;28;20029;-78
2024/01/01 09:40:04;;;;;;;6.25;3.05;;;;;;;;;;5054953;28;20514;-78
2024/01/01 09:42:30;;;;;;;6.68;3.17;;;;;;;;;;5055369;28;20112;-78
2024/01/01 09:44:55;;;;;;;6.47;3.22;;;;;;;;;;5047162;28;20226;-79
2024/01/01 09:47:20;;;;;;;9.23;3.40;;;;;;;;;;5040179;28;20163;-79
2024/01/01 09:49:46;;;;;;;7.00;3.30;;;;;;;;;;5056761;28;20037;-78
2024/01/01 09:52:14;;;;;;;6.50;3.08;;;;;;;;;;5044668;28;20430;-78
2024/01/01 09:54:41;;;;;;;7.90;3.30;;;;;;;;;;5071376;28;20041;-79
2024/01/01 09:57:06;;;;;;;6.35;2.70;;;;;;;;;;5054741;28;20033;-79
2024/01/01 09:59:39;;;;;;;6.90;3.60;;;;;;;;;;5054409;28;20062;-78
2024/01/01 10:02:09;;;;;;;7.50;3.42;;;;;;;;;;5068618;28;20488;-80
2024/01/01 10:04:34;;;;;;;6.28;3.17;;;;;;;;;;5048223;28;20140;-78
2024/01/01 10:07:00;;;;;;;7.35;3.03;;;;;;;;;;5064159;28;20452;-79
2024/01/01 10:09:27;;;;;;;7.43;3.50;;;;;;;;;;5055947;28;20119;-78
2024/01/01 10:11:52;;;;;;;8.75;3.85;;;;;;;;;;5046456;28;20431;-76
2024/01/01 10:14:18;;;;;;;9.27;3.75;;;;;;;;;;5054895;28;20040;-79
2024/01/01 10:16:44;;;;;;;5.68;3.10;;;;;;;;;;5040663;28;20037;-78
2024/01/01 10:19:09;;;;;;;10.40;3.28;;;;;;;;;;5047148;28;20159;-79
2024/01/01 10:21:38;;;;;;;7.68;3.33;;;;;;;;;;5039147;28;20036;-78
2024/01/01 10:24:15;;;;;;;8.05;3.10;;;;;;;;;;5064943;28;20399;-78
2024/01/01 10:26:48;;;;;;;7.35;3.20;;;;;;;;;;5056747;28;20064;-80
2024/01/01 10:29:15;;;;;;;8.65;2.95;;;;;;;;;;5045490;28;20480;-77
2024/01/01 10:31:48;;;;;;;7.93;3.08;;;;;;;;;;5043455;28;20035;-79
2024/01/01 10:34:14;;;;;;;7.53;3.25;;;;;;;;;;5053804;28;20029;-78
2024/01/01 10:36:43;;;;;;;8.02;3.42;;;;;;;;;;5037706;28;20112;-78
2024/01/01 10:39:12;;;;;;;9.93;3.63;;;;;;;;;;5051402;28;20119;-79
2024/01/01 10:41:38;;;;;;;7.25;3.22;;;;;;;;;;5044399;28;20037;-79
2024/01/01 10:44:09;;;;;;;9.35;3.72;;;;;;;;;;5052311;28;20050;-80
2024/01/01 10:46:45;;;;;;;6.13;2.90;;;;;;;;;;5040192;28;20048;-80
2024/01/01 10:49:15;;;;;;;6.65;3.45;;;;;;;;;;5050515;28;20040;-79
2024/01/01 10:52:18;;;;;;;7.57;3.20;;;;;;;;;;5054727;28;20025;-78
2024/01/01 10:54:54;;;;;;;6.93;3.15;;;;;;;;;;5056991;28;20056;-79
2024/01/01 10:57:25;;;;;;;7.13;3.03;;;;;;;;;;5067074;28;20094;-79
2024/01/01 11:00:16;;;;;;;7.15;3.20;;;;;;;;;;5054814;28;20471;-79
2024/01/01 11:02:43;;;;;;;7.97;3.53;;;;;;;;;;5051743;28;20075;-78
2024/01/01 11:05:11;;;;;;;7.38;3.03;;;;;;;;;;5039746;28;20033;-78
2024/01/01 11:08:04;;;;;;;6.22;3.03;;;;;;;;;;5038842;28;20029;-78
2024/01/01 11:10:49;;;;;;;8.27;3.42;;;;;;;;;;5048107;28;20085;-78
2024/01/01 11:13:27;;;;;;;9.35;3.50;;;;;;;;;;5063491;28;20499;-79
2024/01/01 11:16:05;;;;;;;9.23;3.65;;;;;;;;;;5052418;28;20098;-79
2024/01/01 11:18:37;;;;;;;9.75;4.45;;;;;;;;;;5051979;28;20114;-79
2024/01/01 11:21:06;;;;;;;9.80;3.85;;;;;;;;;;5045310;28;20033;-80
2024/01/01 11:23:41;;;;;;;8.13;3.70;;;;;;;;;;5043574;28;20575;-78
2024/01/01 11:26:26;;;;;;;9.60;3.40;;;;;;;;;;5052045;28;20499;-79
2024/01/01 11:28:51;;;;;;;8.35;3.90;;;;;;;;;;5058447;28;20389;-79
2024/01/01 11:31:17;;;;;;;7.88;3.40;;;;;;;;;;5061599;28;20029;-79
2024/01/01 11:33:43;;;;;;;9.43;3.50;;;;;;;;;;5052669;28;20119;-79
2024/01/01 11:36:10;;;;;;;9.02;3.78;;;;;;;;;;5035642;28;20036;-78
2024/01/01 11:38:38;;;;;;;6.82;3.22;;;;;;;;;;5051938;28;20086;-78
2024/01/01 11:41:04;;;;;;;9.63;3.53;;;;;;;;;;5050957;28;20032;-79
2024/01/01 11:43:30;;;;;;;8.50;3.17;;;;;;;;;;5052123;28;20036;-79
2024/01/01 11:45:56;;;;;;;7.78;3.40;;;;;;;;;;5057122;28;20070;-79
2024/01/01 11:48:22;;;;;;;8.05;2.88;;;;;;;;;;5051445;28;20032;-78
2024/01/01 11:50:49;;;;;;;8.85;3.30;;;;;;;;;;5056312;28;20040;-78
2024/01/01 11:53:17;;;;;;;9.00;3.10;;;;;;;;;;5057681;28;20025;-78
2024/01/01 11:55:43;;;;;;;7.13;3.20;;;;;;;;;;5057750;28;20052;-77
2024/01/01 11:58:09;;;;;;;8.80;3.10;;;;;;;;;;5055550;28;20040;-78
2024/01/01 12:00:35;;;;;;;9.60;3.20;;;;;;;;;;5054180;28;20037;-79
2024/01/01 12:06:01;;;;;;;7.07;2.58;;;;;;;;;;5059367;28;20085;-78
2024/01/01 12:08:29;;;;;;;6.95;2.55;;;;;;;;;;5052752;28;20032;-80
2024/01/01 12:10:57;;;;;;;;;;;;;;;;;;5054957;28;20040;-79
2024/01/01 12:13:23;;;;;;;9.63;3.03;;;;;;;;;;5072416;28;20377;-79
2024/01/01 12:15:53;;;;;;;6.95;3.00;;;;;;;;;;5054718;28;20126;-78
2024/01/01 12:18:18;;;;;;;8.52;2.90;;;;;;;;;;5056911;28;20496;-78
2024/01/01 12:20:44;;;;;;;9.57;3.40;;;;;;;;;;5042150;28;20087;-79
2024/01/01 12:23:11;;;;;;;8.38;2.67;;;;;;;;;;5070135;28;20041;-81
2024/01/01 12:25:36;;;;;;;6.70;2.60;;;;;;;;;;5056995;28;20044;-80
2024/01/01 12:28:08;;;;;;;6.15;3.28;;;;;;;;;;5071263;28;20514;-79
2024/01/01 12:30:35;;;;;;;7.43;2.80;;;;;;;;;;5055237;28;20511;-80
2024/01/01 12:33:01;;;;;;;8.50;3.00;;;;;;;;;;5035787;28;20037;-81
2024/01/01 12:35:26;;;;;;;7.68;2.40;;;;;;;;;;5059147;28;20391;-78
2024/01/01 12:37:52;;;;;;;9.43;2.75;;;;;;;;;;5051100;28;20028;-79
2024/01/01 12:40:18;;;;;;;8.40;2.50;;;;;;;;;;5046711;28;20357;-81
2024/01/01 12:43:04;;;;;;;8.93;2.40;;;;;;;;;;5054619;28;20112;-77
2024/01/01 12:45:29;;;;;;;7.97;2.25;;;;;;;;;;5046131;28;20465;-79
2024/01/01 12:47:54;;;;;;;6.10;2.28;;;;;;;;;;5037827;28;20120;-79
2024/01/01 12:50:20;;;;;;;7.13;2.70;;;;;;;;;;5020110;28;20183;-79
2024/01/01 12:52:45;;;;;;;8.32;2.53;;;;;;;;;;5040124;28;20711;-80
2024/01/01 12:55:11;;;;;;;9.10;2.88;;;;;;;;;;5054388;28;20045;-80
2024/01/01 12:57:36;;;;;;;7.45;2.00;;;;;;;;;;5054745;28;20029;-80
2024/01/01 13:00:02;;;;;;;8.38;2.38;;;;;;;;;;5054813;28;20124;-80
2024/01/01 13:02:28;;;;;;;7.10;1.92;;;;;;;;;;5042951;28;20036;-79
2024/01/01 13:04:53;;;;;;;9.27;2.38;;;;;;;;;;5016404;28;20045;-79
2024/01/01 13:07:19;;;;;;;7.93;2.35;;;;;;;;;;5032776;28;20046;-79
2024/01/01 13:09:44;;;;;;;7.95;2.28;;;;;;;;;;5036618;28;20033;-81
2024/01/01 13:12:10;;;;;;;7.72;2.35;;;;;;;;;;5042568;28;20041;-79
2024/01/01 13:14:36;;;;;;;6.32;2.30;;;;;;;;;;5001312;28;20477;-80
2024/01/01 13:17:05;;;;;;;8.90;2.40;;;;;;;;;;5039152;28;20041;-80
2024/01/01 13:19:35;;;;;;;10.93;2.40;;;;;;;;;;5037227;28;20067;-79
2024/01/01 13:22:08;;;;;;;11.57;3.70;;;;;;;;;;5058225;28;20040;-79
2024/01/01 13:24:34;;;;;;;10.90;2.60;;;;;;;;;;5072442;28;20045;-79
2024/01/01 13:26:59;;;;;;;8.98;2.38;;;;;;;;;;5045428;28;20056;-79
2024/01/01 13:29:26;;;;;;;7.18;2.15;;;;;;;;;;5054956;28;20036;-80
2024/01/01 13:31:51;;;;;;;9.68;2.30;;;;;;;;;;5072229;28;20053;-79
2024/01/01 13:34:17;;;;;;;8.23;2.40;;;;;;;;;;5057762;28;20068;-80
2024/01/01 13:36:42;;;;;;;7.70;2.28;;;;;;;;;;5052853;28;20060;-79
2024/01/01 13:39:10;;;;;;;9.52;2.50;;;;;;;;;;5055779;28;20028;-77
2024/01/01 13:41:38;;;;;;;7.10;2.30;;;;;;;;;;5044975;28;20037;-79
2024/01/01 13:44:06;;;;;;;7.72;1.90;;;;;;;;;;5048214;28;20044;-79
2024/01/01 13:46:36;;;;;;;8.52;2.45;;;;;;;;;;5051356;28;20040;-80
2024/01/01 13:49:02;;;;;;;7.65;2.08;;;;;;;;;;5050606;28;20037;-79
2024/01/01 13:51:27;;;;;;;11.18;2.47;;;;;;;;;;5051417;28;20500;-78
2024/01/01 13:53:53;;;;;;;10.43;2.20;;;;;;;;;;5053825;28;20166;-77
2024/01/01 13:56:21;;;;;;;7.65;2.47;;;;;;;;;;5062732;28;20051;-77
2024/01/01 13:58:46;;;;;;;9.75;2.55;;;;;;;;;;5051889;28;20104;-81
2024/01/01 14:01:12;;;;;;;7.18;2.30;;;;;;;;;;5054965;28;20568;-77
2024/01/01 14:03:40;;;;;;;8.00;2.55;;;;;;;;;;5045105;28;20035;-79
2024/01/01 14:06:05;;;;;;;7.15;2.35;;;;;;;;;;5052944;28;20036;-80
2024/01/01 14:08:31;;;;;;;8.98;2.38;;;;;;;;;;5053566;28;20038;-80
2024/01/01 14:10:57;;;;;;;9.18;2.35;;;;;;;;;;5053786;28;20036;-80
2024/01/01 14:13:23;;;;;;;8.68;2.05;;;;;;;;;;5067630;28;20488;-79
2024/01/01 14:15:49;;;;;;;11.27;2.25;;;;;;;;;;5047615;28;20040;-80
2024/01/01 14:18:18;;;;;;;7.60;2.00;;;;;;;;;;5056214;28;20028;-81
2024/01/01 14:20:43;;;;;;;12.82;2.00;;;;;;;;;;5044169;28;20036;-80
2024/01/01 14:23:10;;;;;;;6.68;1.60;;;;;;;;;;5051172;28;20090;-79
2024/01/01 14:25:37;;;;;;;9.48;2.17;;;;;;;;;;5055050;28;20481;-79
2024/01/01 14:28:07;;;;;;;7.97;1.80;;;;;;;;;;5053095;28;20060;-79
2024/01/01 14:30:34;;;;;;;7.13;1.90;;;;;;;;;;5051666;28;20550;-79